createdAt,value
2022-11-29T00:01:21.198Z,4.82
2022-11-29T00:03:48.322Z,4.39
2022-11-29T00:06:17.964Z,4.69
2022-11-29T00:08:45.778Z,4.58
2022-11-29T00:11:35.928Z,4.58
2022-11-29T00:14:03.047Z,4.19
2022-11-29T00:16:30.145Z,4.05
2022-11-29T00:18:57.096Z,4.30
2022-11-29T00:21:24.218Z,4.70
2022-11-29T00:24:11.899Z,3.78
2022-11-29T00:27:13.829Z,3.97
2022-11-29T00:29:54.379Z,4.06
2022-11-29T00:32:21.596Z,3.80
2022-11-29T00:35:09.938Z,3.71
2022-11-29T00:37:51.149Z,4.35
2022-11-29T00:40:18.313Z,4.24
2022-11-29T00:43:05.867Z,4.57
2022-11-29T00:45:46.464Z,4.46
2022-11-29T00:48:13.402Z,4.18
2022-11-29T00:50:40.493Z,3.74
2022-11-29T00:53:27.845Z,4.04
2022-11-29T00:56:28.837Z,4.65
2022-11-29T00:59:19.485Z,4.30
2022-11-29T01:01:46.509Z,4.12
2022-11-29T01:04:13.576Z,4.05
2022-11-29T01:06:40.856Z,3.96
2022-11-29T01:09:07.997Z,4.48
2022-11-29T01:11:35.559Z,3.58
2022-11-29T01:14:04.884Z,3.92
2022-11-29T01:16:32.951Z,3.49
2022-11-29T01:19:00.570Z,4.01
2022-11-29T01:21:27.717Z,4.58
2022-11-29T01:23:55.201Z,4.75
2022-11-29T01:26:43.895Z,4.48
2022-11-29T01:29:24.780Z,4.40
2022-11-29T01:31:51.720Z,4.19
2022-11-29T01:34:38.899Z,4.22
2022-11-29T01:37:19.524Z,4.73
2022-11-29T01:39:46.634Z,4.81
2022-11-29T01:42:33.879Z,3.93
2022-11-29T01:45:23.293Z,4.79
2022-11-29T01:47:55.180Z,4.96
2022-11-29T01:50:22.320Z,5.24
2022-11-29T01:52:49.598Z,5.14
2022-11-29T01:55:16.967Z,4.73
2022-11-29T01:57:44.460Z,5.13
2022-11-29T02:00:16.125Z,5.07
2022-11-29T02:03:07.435Z,4.92
2022-11-29T02:05:57.894Z,4.87
2022-11-29T02:08:58.921Z,4.28
2022-11-29T02:11:49.188Z,3.86
2022-11-29T02:14:28.282Z,4.79
2022-11-29T02:16:56.803Z,4.93
2022-11-29T02:19:36.015Z,4.48
2022-11-29T02:22:10.727Z,4.38
2022-11-29T02:24:56.277Z,4.79
2022-11-29T02:27:57.096Z,4.75
2022-11-29T02:30:37.579Z,4.69
2022-11-29T02:33:48.900Z,5.03
2022-11-29T02:37:08.567Z,4.96
2022-11-29T02:39:57.607Z,5.11
2022-11-29T02:43:04.878Z,5.01
2022-11-29T02:46:19.158Z,5.04
2022-11-29T02:49:03.102Z,4.97
2022-11-29T02:52:00.922Z,4.64
2022-11-29T02:54:50.443Z,4.69
2022-11-29T02:57:23.502Z,4.88
2022-11-29T03:00:05.341Z,5.00
2022-11-29T03:03:30.944Z,4.90
2022-11-29T03:06:12.197Z,4.86
2022-11-29T03:09:00.876Z,4.87
2022-11-29T03:11:53.152Z,4.89
2022-11-29T03:14:52.894Z,4.87
2022-11-29T03:18:19.950Z,4.78
2022-11-29T03:21:26.977Z,4.01
2022-11-29T03:24:26.122Z,4.76
2022-11-29T03:27:04.178Z,4.66
2022-11-29T03:29:40.614Z,4.52
2022-11-29T03:32:27.425Z,4.70
2022-11-29T03:35:28.935Z,4.66
2022-11-29T03:38:32.976Z,4.59
2022-11-29T03:41:57.973Z,4.54
2022-11-29T03:45:14.944Z,4.63
2022-11-29T03:48:07.663Z,4.67
2022-11-29T03:50:49.743Z,4.80
2022-11-29T03:53:37.184Z,4.35
2022-11-29T03:56:41.888Z,4.87
2022-11-29T03:59:37.237Z,4.49
2022-11-29T04:02:42.028Z,4.89
2022-11-29T04:05:53.528Z,5.07
2022-11-29T04:08:51.392Z,4.87
2022-11-29T04:11:30.460Z,4.85
2022-11-29T04:14:26.849Z,3.72
2022-11-29T04:17:31.964Z,4.67
2022-11-29T04:21:00.039Z,4.84
2022-11-29T04:24:02.320Z,5.02
2022-11-29T04:26:38.315Z,4.87
2022-11-29T04:29:30.929Z,4.72
2022-11-29T04:32:34.631Z,4.61
2022-11-29T04:35:27.990Z,5.16
2022-11-29T04:38:45.418Z,5.12
2022-11-29T04:42:00.023Z,4.23
2022-11-29T04:45:12.000Z,5.10
2022-11-29T04:48:18.297Z,4.99
2022-11-29T04:51:04.044Z,4.89
2022-11-29T04:53:40.786Z,4.31
2022-11-29T04:56:53.002Z,4.26
2022-11-29T05:00:06.422Z,4.98
2022-11-29T05:03:08.887Z,4.62
2022-11-29T05:06:06.290Z,4.41
2022-11-29T05:08:36.234Z,4.97
2022-11-29T05:11:23.441Z,4.98
2022-11-29T05:13:59.086Z,5.03
2022-11-29T05:16:44.909Z,5.01
2022-11-29T05:19:19.081Z,4.13
2022-11-29T05:21:58.236Z,4.93
2022-11-29T05:24:44.262Z,4.95
2022-11-29T05:27:42.309Z,4.88
2022-11-29T05:30:22.242Z,4.75
2022-11-29T05:33:11.967Z,4.70
2022-11-29T05:36:58.005Z,4.58
2022-11-29T05:39:50.809Z,4.67
2022-11-29T05:42:50.009Z,4.75
2022-11-29T05:46:08.350Z,4.76
2022-11-29T05:48:53.453Z,4.87
2022-11-29T05:51:22.449Z,4.91
2022-11-29T05:54:16.039Z,5.02
2022-11-29T05:56:47.577Z,4.85
2022-11-29T05:59:21.900Z,4.84
2022-11-29T06:02:27.193Z,4.73
2022-11-29T06:05:42.028Z,4.57
2022-11-29T06:09:16.792Z,4.80
2022-11-29T06:12:06.148Z,4.20
2022-11-29T06:15:13.748Z,4.79
2022-11-29T06:18:32.049Z,4.90
2022-11-29T06:21:40.273Z,4.39
2022-11-29T06:24:13.274Z,4.91
2022-11-29T06:26:49.286Z,4.91
2022-11-29T06:29:51.014Z,4.97
2022-11-29T06:32:44.157Z,5.01
2022-11-29T06:35:56.032Z,4.45
2022-11-29T06:38:57.029Z,4.84
2022-11-29T06:41:58.025Z,4.52
2022-11-29T06:44:59.002Z,4.48
2022-11-29T06:47:49.204Z,5.13
2022-11-29T06:51:07.099Z,4.75
2022-11-29T06:54:11.160Z,5.18
2022-11-29T06:57:02.916Z,5.08
2022-11-29T06:59:39.089Z,4.73
2022-11-29T07:02:45.056Z,4.61
2022-11-29T07:05:28.766Z,5.17
2022-11-29T07:08:01.789Z,4.87
2022-11-29T07:10:32.553Z,4.74
2022-11-29T07:13:00.046Z,4.21
2022-11-29T07:15:28.243Z,4.18
2022-11-29T07:18:10.767Z,4.68
2022-11-29T07:21:08.241Z,4.70
2022-11-29T07:23:45.572Z,4.74
2022-11-29T07:26:35.314Z,4.18
2022-11-29T07:29:24.309Z,4.76
2022-11-29T07:32:27.035Z,4.65
2022-11-29T07:35:20.371Z,4.61
2022-11-29T07:38:41.065Z,4.61
2022-11-29T07:42:05.179Z,4.61
2022-11-29T07:45:24.566Z,4.69
2022-11-29T07:47:52.210Z,4.54
2022-11-29T07:50:21.406Z,4.47
2022-11-29T07:52:49.309Z,4.32
2022-11-29T07:55:38.011Z,4.59
2022-11-29T07:58:05.407Z,4.52
2022-11-29T08:01:01.080Z,4.30
2022-11-29T08:04:02.118Z,4.19
2022-11-29T08:07:03.120Z,4.65
2022-11-29T08:10:04.119Z,4.95
2022-11-29T08:13:05.097Z,4.73
2022-11-29T08:16:06.104Z,5.01
2022-11-29T08:19:07.083Z,4.15
2022-11-29T08:21:48.330Z,4.46
2022-11-29T08:24:15.298Z,4.85
2022-11-29T08:26:42.343Z,4.36
2022-11-29T08:29:09.313Z,4.65
2022-11-29T08:31:41.695Z,3.50
2022-11-29T08:34:37.131Z,4.89
2022-11-29T08:37:31.379Z,5.02
2022-11-29T08:40:12.603Z,5.10
2022-11-29T08:43:00.110Z,4.48
2022-11-29T08:46:06.178Z,4.98
2022-11-29T08:48:48.025Z,4.99
2022-11-29T08:51:35.117Z,4.74
2022-11-29T08:54:36.180Z,5.17
2022-11-29T08:57:40.194Z,4.76
2022-11-29T09:00:21.635Z,5.36
2022-11-29T09:02:48.885Z,5.53
2022-11-29T09:05:16.028Z,5.08
2022-11-29T09:07:43.612Z,5.12
2022-11-29T09:10:11.444Z,5.67
2022-11-29T09:12:41.565Z,5.26
2022-11-29T09:15:10.358Z,6.27
2022-11-29T09:17:37.858Z,6.30
2022-11-29T09:23:01.478Z,5.80
2022-11-29T09:25:34.885Z,5.74
2022-11-29T09:28:12.193Z,6.49
2022-11-29T09:30:41.472Z,5.88
2022-11-29T09:33:30.175Z,6.33
2022-11-29T09:36:28.849Z,5.82
2022-11-29T09:39:03.067Z,5.29
2022-11-29T09:42:11.243Z,5.66
2022-11-29T09:45:04.175Z,4.84
2022-11-29T09:47:53.262Z,6.01
2022-11-29T09:50:43.186Z,5.07
2022-11-29T09:53:28.993Z,5.78
2022-11-29T09:56:11.408Z,6.27
2022-11-29T09:58:47.620Z,6.31
2022-11-29T10:01:22.055Z,6.93
2022-11-29T10:04:19.209Z,7.04
2022-11-29T10:08:01.205Z,7.07
2022-11-29T10:10:50.553Z,6.03
2022-11-29T10:13:25.424Z,6.37
2022-11-29T10:16:01.945Z,6.57
2022-11-29T10:18:34.669Z,7.19
2022-11-29T10:21:12.870Z,5.43
2022-11-29T10:23:51.227Z,7.08
2022-11-29T10:26:20.866Z,6.64
2022-11-29T10:28:49.488Z,6.58
2022-11-29T10:31:36.523Z,7.20
2022-11-29T10:34:35.283Z,6.99
2022-11-29T10:37:24.267Z,7.09
2022-11-29T10:39:58.758Z,6.74
2022-11-29T10:43:01.149Z,7.34
2022-11-29T10:45:56.100Z,7.01
2022-11-29T10:48:32.329Z,7.03
2022-11-29T10:51:31.452Z,7.44
2022-11-29T10:54:33.867Z,7.12
2022-11-29T10:57:02.433Z,6.80
2022-11-29T10:59:49.219Z,6.93
2022-11-29T11:02:50.165Z,6.60
2022-11-29T11:05:40.199Z,7.11
2022-11-29T11:08:44.190Z,7.18
2022-11-29T11:11:46.150Z,7.18
2022-11-29T11:14:33.225Z,7.40
2022-11-29T11:17:30.130Z,7.25
2022-11-29T11:20:34.232Z,7.42
2022-11-29T11:23:27.336Z,7.62
2022-11-29T11:26:14.902Z,7.37
2022-11-29T11:29:00.489Z,7.36
2022-11-29T11:31:38.057Z,7.24
2022-11-29T11:34:46.470Z,7.47
2022-11-29T11:37:32.443Z,7.11
2022-11-29T11:40:18.382Z,7.36
2022-11-29T11:43:05.290Z,7.52
2022-11-29T11:45:53.596Z,7.82
2022-11-29T11:48:22.189Z,7.66
2022-11-29T11:50:56.397Z,7.29
2022-11-29T11:53:31.945Z,7.49
2022-11-29T11:56:26.197Z,7.20
2022-11-29T11:59:14.486Z,6.96
2022-11-29T12:01:41.461Z,6.76
2022-11-29T12:04:33.489Z,7.30
2022-11-29T12:07:45.213Z,7.54
2022-11-29T12:10:19.967Z,6.73
2022-11-29T12:12:49.324Z,7.28
2022-11-29T12:15:32.468Z,7.41
2022-11-29T12:18:34.263Z,7.32
2022-11-29T12:21:41.312Z,7.35
2022-11-29T12:24:36.394Z,6.97
2022-11-29T12:27:06.165Z,7.52
2022-11-29T12:29:36.815Z,7.44
2022-11-29T12:32:10.182Z,7.17
2022-11-29T12:35:31.222Z,7.19
2022-11-29T12:38:34.358Z,7.49
2022-11-29T12:41:41.250Z,7.20
2022-11-29T12:44:31.080Z,7.64
2022-11-29T12:47:36.083Z,6.75
2022-11-29T12:50:42.318Z,7.07
2022-11-29T12:54:01.253Z,7.23
2022-11-29T12:57:09.282Z,7.32
2022-11-29T13:00:14.712Z,7.26
2022-11-29T13:02:52.977Z,7.41
2022-11-29T13:06:00.241Z,6.84
2022-11-29T13:09:01.233Z,7.35
2022-11-29T13:11:53.183Z,7.34
2022-11-29T13:14:45.383Z,7.26
2022-11-29T13:17:20.769Z,7.59
2022-11-29T13:19:58.423Z,7.53
2022-11-29T13:22:30.883Z,7.56
2022-11-29T13:25:01.594Z,7.53
2022-11-29T13:27:37.165Z,7.13
2022-11-29T13:30:05.203Z,7.60
2022-11-29T13:32:36.409Z,7.52
2022-11-29T13:35:33.619Z,6.95
2022-11-29T13:38:49.254Z,6.83
2022-11-29T13:42:24.265Z,7.42
2022-11-29T13:45:17.166Z,7.19
2022-11-29T13:48:09.249Z,7.00
2022-11-29T13:51:11.290Z,6.87
2022-11-29T13:53:53.032Z,6.93
2022-11-29T13:56:54.269Z,6.83
2022-11-29T14:00:02.278Z,6.73
2022-11-29T14:02:42.901Z,6.99
2022-11-29T14:05:25.900Z,7.33
2022-11-29T14:08:27.314Z,7.52
2022-11-29T14:11:04.002Z,6.47
2022-11-29T14:13:47.853Z,7.03
2022-11-29T14:16:52.315Z,7.29
2022-11-29T14:19:53.275Z,6.66
2022-11-29T14:23:19.306Z,6.72
2022-11-29T14:26:00.743Z,7.23
2022-11-29T14:28:29.932Z,7.09
2022-11-29T14:31:07.768Z,6.71
2022-11-29T14:34:10.406Z,7.24
2022-11-29T14:37:28.393Z,6.70
2022-11-29T14:40:17.942Z,7.20
2022-11-29T14:43:07.385Z,6.72
2022-11-29T14:46:30.471Z,6.88
2022-11-29T14:49:40.357Z,6.71
2022-11-29T14:52:45.290Z,6.77
2022-11-29T14:55:50.303Z,6.70
2022-11-29T14:58:31.045Z,6.53
2022-11-29T15:01:06.624Z,6.53
2022-11-29T15:03:45.382Z,6.72
2022-11-29T15:06:27.310Z,6.10
2022-11-29T15:08:57.588Z,6.74
2022-11-29T15:11:33.976Z,6.71
2022-11-29T15:14:24.260Z,6.87
2022-11-29T15:16:58.552Z,6.05
2022-11-29T15:19:40.647Z,6.73
2022-11-29T15:22:27.779Z,6.37
2022-11-29T15:25:12.335Z,6.54
2022-11-29T15:27:57.403Z,6.60
2022-11-29T15:30:39.167Z,6.58
2022-11-29T15:33:22.341Z,6.58
2022-11-29T15:36:24.339Z,5.94
2022-11-29T15:39:11.406Z,6.57
2022-11-29T15:42:17.357Z,6.45
2022-11-29T15:45:29.638Z,6.50
2022-11-29T15:48:44.296Z,6.45
2022-11-29T15:51:37.122Z,5.83
2022-11-29T15:54:13.026Z,6.35
2022-11-29T15:56:56.021Z,6.00
2022-11-29T15:59:31.991Z,5.89
2022-11-29T16:02:05.704Z,6.32
2022-11-29T16:04:33.187Z,5.82
2022-11-29T16:07:20.524Z,5.85
2022-11-29T16:10:12.763Z,5.78
2022-11-29T16:12:53.828Z,5.99
2022-11-29T16:15:40.424Z,6.15
2022-11-29T16:18:26.351Z,5.12
2022-11-29T16:21:05.983Z,6.10
2022-11-29T16:23:56.374Z,5.35
2022-11-29T16:26:41.949Z,6.08
2022-11-29T16:29:30.799Z,5.88
2022-11-29T16:31:58.243Z,5.35
2022-11-29T16:34:45.691Z,6.03
2022-11-29T16:37:55.388Z,5.94
2022-11-29T16:40:49.330Z,5.65
2022-11-29T16:44:02.534Z,5.98
2022-11-29T16:46:55.648Z,5.93
2022-11-29T16:49:34.938Z,5.86
2022-11-29T16:52:03.890Z,5.94
2022-11-29T16:54:34.304Z,5.39
2022-11-29T16:57:06.682Z,5.80
2022-11-29T16:59:35.372Z,5.04
2022-11-29T17:02:26.472Z,5.88
2022-11-29T17:05:07.305Z,5.51
2022-11-29T17:07:38.232Z,5.17
2022-11-29T17:10:08.398Z,5.76
2022-11-29T17:12:35.583Z,5.74
2022-11-29T17:15:02.696Z,5.61
2022-11-29T17:17:50.364Z,4.29
2022-11-29T17:20:31.104Z,5.28
2022-11-29T17:22:58.091Z,4.62
2022-11-29T17:25:25.118Z,5.60
2022-11-29T17:27:52.373Z,5.25
2022-11-29T17:30:39.379Z,5.08
2022-11-29T17:33:43.329Z,5.40
2022-11-29T17:36:51.427Z,5.21
2022-11-29T17:39:32.642Z,4.67
2022-11-29T17:42:19.407Z,4.64
2022-11-29T17:45:00.036Z,4.52
2022-11-29T17:47:26.967Z,4.84
2022-11-29T17:49:53.921Z,5.00
2022-11-29T17:52:20.952Z,4.17
2022-11-29T17:54:47.861Z,4.65
2022-11-29T17:57:14.888Z,4.99
2022-11-29T17:59:41.870Z,4.62
2022-11-29T18:02:29.460Z,5.06
2022-11-29T18:05:23.620Z,4.71
2022-11-29T18:08:17.390Z,4.41
2022-11-29T18:11:13.650Z,5.12
2022-11-29T18:13:40.735Z,5.25
2022-11-29T18:16:13.863Z,5.02
2022-11-29T18:18:41.515Z,4.71
2022-11-29T18:21:10.147Z,4.86
2022-11-29T18:23:39.823Z,5.13
2022-11-29T18:26:11.489Z,4.98
2022-11-29T18:28:58.387Z,5.25
2022-11-29T18:32:00.406Z,5.37
2022-11-29T18:34:40.942Z,5.07
2022-11-29T18:37:12.355Z,5.31
2022-11-29T18:39:42.401Z,5.04
2022-11-29T18:42:29.415Z,5.05
2022-11-29T18:45:10.324Z,5.07
2022-11-29T18:47:57.461Z,5.18
2022-11-29T18:50:38.019Z,4.92
2022-11-29T18:53:04.862Z,4.97
2022-11-29T18:55:32.057Z,5.22
2022-11-29T18:57:58.960Z,4.82
2022-11-29T19:00:25.999Z,4.04
2022-11-29T19:02:53.389Z,4.95
2022-11-29T19:05:20.285Z,5.16
2022-11-29T19:08:07.541Z,4.46
2022-11-29T19:11:08.425Z,4.65
2022-11-29T19:14:04.064Z,4.70
2022-11-29T19:16:34.516Z,4.78
2022-11-29T19:19:02.119Z,4.94
2022-11-29T19:21:32.017Z,4.79
2022-11-29T19:24:21.390Z,4.41
2022-11-29T19:27:03.240Z,3.78
2022-11-29T19:29:50.640Z,4.09
2022-11-29T19:32:51.447Z,3.89
2022-11-29T19:35:32.010Z,4.09
2022-11-29T19:37:59.098Z,4.25
2022-11-29T19:40:26.473Z,3.82
2022-11-29T19:43:13.463Z,3.99
2022-11-29T19:45:54.076Z,3.98
2022-11-29T19:48:21.306Z,3.89
2022-11-29T19:50:48.247Z,3.69
2022-11-29T19:53:16.150Z,3.30
2022-11-29T19:55:44.247Z,3.29
2022-11-29T19:58:31.440Z,3.25
2022-11-29T20:01:42.879Z,3.61
2022-11-29T20:04:44.445Z,3.49
2022-11-29T20:07:28.740Z,3.56
2022-11-29T20:09:55.690Z,2.97
2022-11-29T20:12:22.848Z,3.08
2022-11-29T20:15:09.481Z,3.17
2022-11-29T20:18:11.440Z,3.02
2022-11-29T20:21:26.545Z,3.33
2022-11-29T20:24:07.869Z,2.97
2022-11-29T20:26:38.213Z,3.31
2022-11-29T20:29:08.320Z,3.34
2022-11-29T20:31:56.534Z,3.11
2022-11-29T20:34:57.452Z,3.22
2022-11-29T20:38:03.465Z,2.94
2022-11-29T20:41:02.647Z,3.29
2022-11-29T20:43:58.008Z,2.67
2022-11-29T20:46:25.987Z,2.48
2022-11-29T20:48:54.208Z,3.15
2022-11-29T20:51:36.874Z,2.73
2022-11-29T20:54:03.973Z,2.90
2022-11-29T20:56:30.862Z,2.97
2022-11-29T20:58:57.971Z,2.47
2022-11-29T21:01:47.546Z,2.76
2022-11-29T21:04:48.766Z,2.15
2022-11-29T21:07:49.731Z,3.03
2022-11-29T21:10:50.597Z,3.18
2022-11-29T21:13:34.436Z,3.10
2022-11-29T21:16:02.259Z,2.81
2022-11-29T21:18:33.682Z,2.88
2022-11-29T21:21:16.090Z,2.39
2022-11-29T21:24:07.490Z,2.80
2022-11-29T21:26:41.937Z,2.72
2022-11-29T21:29:14.911Z,2.80
2022-11-29T21:32:07.513Z,2.86
2022-11-29T21:35:08.508Z,2.72
2022-11-29T21:38:12.517Z,2.85
2022-11-29T21:41:13.489Z,2.47
2022-11-29T21:44:08.265Z,2.40
2022-11-29T21:47:09.512Z,2.50
2022-11-29T21:49:52.650Z,2.89
2022-11-29T21:52:22.773Z,2.74
2022-11-29T21:54:50.239Z,2.23
2022-11-29T21:57:17.190Z,2.21
2022-11-29T21:59:44.218Z,2.65
2022-11-29T22:02:11.272Z,2.54
2022-11-29T22:04:38.312Z,2.87
2022-11-29T22:07:05.315Z,2.38
2022-11-29T22:09:52.641Z,2.69
2022-11-29T22:12:34.901Z,2.39
2022-11-29T22:15:25.063Z,2.20
2022-11-29T22:18:26.590Z,2.65
2022-11-29T22:21:08.830Z,2.48
2022-11-29T22:23:36.328Z,2.64
2022-11-29T22:26:07.434Z,2.60
2022-11-29T22:28:37.167Z,2.79
2022-11-29T22:31:07.448Z,2.76
2022-11-29T22:33:34.870Z,2.79
2022-11-29T22:36:11.099Z,2.23
2022-11-29T22:38:58.865Z,2.63
2022-11-29T22:41:59.651Z,2.53
2022-11-29T22:44:40.090Z,2.41
2022-11-29T22:47:07.189Z,2.00
2022-11-29T22:49:35.921Z,2.60
2022-11-29T22:52:24.775Z,2.67
2022-11-29T22:55:06.621Z,1.74
2022-11-29T22:57:33.885Z,2.19
2022-11-29T23:00:22.575Z,2.51
2022-11-29T23:03:23.550Z,2.10
2022-11-29T23:06:17.485Z,2.62
2022-11-29T23:08:47.105Z,2.56
2022-11-29T23:11:17.007Z,2.21
2022-11-29T23:13:44.567Z,2.55
2022-11-29T23:16:34.573Z,1.87
2022-11-29T23:19:36.530Z,2.17
2022-11-29T23:22:38.543Z,2.40
2022-11-29T23:25:19.077Z,2.32
2022-11-29T23:27:45.978Z,1.94
2022-11-29T23:30:13.686Z,1.99
2022-11-29T23:32:40.557Z,1.26
2022-11-29T23:35:27.566Z,1.92
2022-11-29T23:38:08.343Z,2.32
2022-11-29T23:40:35.423Z,1.61
2022-11-29T23:43:36.613Z,2.33
2022-11-29T23:46:30.726Z,2.15
2022-11-29T23:49:11.255Z,1.99
2022-11-29T23:51:38.243Z,2.10
2022-11-29T23:54:05.331Z,1.72
2022-11-29T23:56:35.456Z,2.04
2022-11-29T23:59:02.660Z,1.89
